createdAt,value
2018-10-12T00:01:12.936Z,10.93
2018-10-12T00:03:42.754Z,10.87
2018-10-12T00:09:17.237Z,10.00
2018-10-12T00:11:46.939Z,9.37
2018-10-12T00:14:26.099Z,11.00
2018-10-12T00:16:55.762Z,9.47
2018-10-12T00:19:25.448Z,9.53
2018-10-12T00:21:55.520Z,8.87
2018-10-12T00:24:38.914Z,9.47
2018-10-12T00:33:18.974Z,10.77
2018-10-12T00:35:48.610Z,10.70
2018-10-12T00:41:39.046Z,10.77
2018-10-12T00:44:08.632Z,10.30
2018-10-12T00:46:38.247Z,10.97
2018-10-12T00:49:08.170Z,12.80
2018-10-12T00:51:37.767Z,11.07
2018-10-12T00:54:07.558Z,10.70
2018-10-12T00:56:37.316Z,11.13
2018-10-12T00:59:06.991Z,11.27
2018-10-12T01:01:36.606Z,11.00
2018-10-12T01:07:12.788Z,9.97
2018-10-12T01:09:42.563Z,11.07
2018-10-12T01:12:43.182Z,11.23
2018-10-12T01:15:12.887Z,10.07
2018-10-12T01:17:42.531Z,9.50
2018-10-12T01:20:12.369Z,9.87
2018-10-12T01:22:42.021Z,9.67
2018-10-12T01:25:15.376Z,10.33
2018-10-12T01:27:44.993Z,10.20
2018-10-12T01:30:14.593Z,10.27
2018-10-12T01:32:49.655Z,10.10
2018-10-12T01:35:19.322Z,9.60
2018-10-12T01:37:48.967Z,10.57
2018-10-12T01:40:18.690Z,10.83
2018-10-12T01:42:48.355Z,10.10
2018-10-12T01:45:18.045Z,11.00
2018-10-12T01:47:59.735Z,11.07
2018-10-12T01:50:29.442Z,10.73
2018-10-12T01:52:59.232Z,12.07
2018-10-12T01:55:28.863Z,10.00
2018-10-12T01:57:58.480Z,11.30
2018-10-12T02:00:28.114Z,11.87
2018-10-12T02:02:57.896Z,9.67
2018-10-12T02:05:27.564Z,10.27
2018-10-12T02:08:03.350Z,11.03
2018-10-12T02:10:32.974Z,10.57
2018-10-12T02:13:02.664Z,11.87
2018-10-12T02:15:31.991Z,11.40
2018-10-12T02:18:01.498Z,12.27
2018-10-12T02:20:30.825Z,11.07
2018-10-12T02:23:00.245Z,11.80
2018-10-12T02:25:31.697Z,10.37
2018-10-12T02:28:01.108Z,11.60
2018-10-12T02:30:30.414Z,10.87
2018-10-12T02:32:59.789Z,11.43
2018-10-12T02:35:29.112Z,11.60
2018-10-12T02:37:58.430Z,12.50
2018-10-12T02:40:28.009Z,12.13
2018-10-12T02:42:57.368Z,11.20
2018-10-12T02:45:26.809Z,11.30
2018-10-12T02:47:56.193Z,11.77
2018-10-12T02:50:25.648Z,10.77
2018-10-12T02:52:54.978Z,10.53
2018-10-12T02:55:24.316Z,9.27
2018-10-12T02:57:53.634Z,9.93
2018-10-12T03:00:22.989Z,9.33
2018-10-12T03:02:52.292Z,8.23
2018-10-12T03:05:21.828Z,9.33
2018-10-12T03:07:51.337Z,9.53
2018-10-12T03:10:20.629Z,9.40
2018-10-12T03:12:50.052Z,9.83
2018-10-12T03:15:19.394Z,10.07
2018-10-12T03:17:48.760Z,9.87
2018-10-12T03:20:18.085Z,10.43
2018-10-12T03:22:47.665Z,9.93
2018-10-12T03:25:17.210Z,10.90
2018-10-12T03:28:03.609Z,10.27
2018-10-12T03:30:33.007Z,9.67
2018-10-12T03:33:02.477Z,9.43
2018-10-12T03:35:31.965Z,10.63
2018-10-12T03:38:01.373Z,10.33
2018-10-12T03:40:30.885Z,10.77
2018-10-12T03:43:00.281Z,9.47
2018-10-12T03:45:29.654Z,10.13
2018-10-12T03:47:59.003Z,9.97
2018-10-12T03:50:28.471Z,10.00
2018-10-12T03:52:57.804Z,9.53
2018-10-12T03:55:27.102Z,9.30
2018-10-12T03:57:56.453Z,9.60
2018-10-12T04:00:26.306Z,9.93
2018-10-12T04:02:55.779Z,10.43
2018-10-12T04:05:25.102Z,9.43
2018-10-12T04:07:54.433Z,8.87
2018-10-12T04:10:24.049Z,8.83
2018-10-12T04:12:53.790Z,8.90
2018-10-12T04:15:23.296Z,9.50
2018-10-12T04:17:52.605Z,9.97
2018-10-12T04:20:23.025Z,10.40
2018-10-12T04:22:52.349Z,10.33
2018-10-12T04:25:21.745Z,10.47
2018-10-12T04:27:51.101Z,10.83
2018-10-12T04:30:20.419Z,10.93
2018-10-12T04:32:49.806Z,9.17
2018-10-12T04:35:19.613Z,9.63
2018-10-12T04:37:49.086Z,9.83
2018-10-12T04:41:28.012Z,10.07
2018-10-12T04:44:02.057Z,10.10
2018-10-12T04:46:38.344Z,11.77
2018-10-12T04:49:10.093Z,9.97
2018-10-12T04:51:56.910Z,11.27
2018-10-12T04:54:26.805Z,10.23
2018-10-12T04:56:56.178Z,10.97
2018-10-12T04:59:25.566Z,11.50
2018-10-12T05:01:54.991Z,12.17
2018-10-12T05:04:25.557Z,12.57
2018-10-12T05:06:55.098Z,11.30
2018-10-12T05:09:24.553Z,11.80
2018-10-12T05:11:54.969Z,12.10
2018-10-12T05:14:24.585Z,11.63
2018-10-12T05:16:55.489Z,11.57
2018-10-12T05:19:24.893Z,11.90
2018-10-12T05:21:54.225Z,11.27
2018-10-12T05:24:34.333Z,12.03
2018-10-12T05:27:03.773Z,11.13
2018-10-12T05:29:33.089Z,11.23
2018-10-12T05:32:02.581Z,11.33
2018-10-12T05:34:31.986Z,11.57
2018-10-12T05:37:02.353Z,11.13
2018-10-12T05:39:31.740Z,10.63
2018-10-12T05:42:01.091Z,10.47
2018-10-12T05:44:30.441Z,10.80
2018-10-12T05:46:59.753Z,11.17
2018-10-12T05:49:46.028Z,12.80
2018-10-12T05:52:20.813Z,10.77
2018-10-12T05:54:50.265Z,11.27
2018-10-12T05:57:19.718Z,11.77
2018-10-12T05:59:49.134Z,12.27
2018-10-12T06:02:18.527Z,11.80
2018-10-12T06:04:47.857Z,11.80
2018-10-12T06:07:17.182Z,11.70
2018-10-12T06:09:46.625Z,11.80
2018-10-12T06:12:15.885Z,12.27
2018-10-12T06:14:45.299Z,11.30
2018-10-12T06:17:14.670Z,11.23
2018-10-12T06:19:44.281Z,11.37
2018-10-12T06:22:13.747Z,12.30
2018-10-12T06:24:43.114Z,11.20
2018-10-12T06:27:12.541Z,13.93
2018-10-12T06:29:41.891Z,12.70
2018-10-12T06:32:11.318Z,12.07
2018-10-12T06:34:40.669Z,12.30
2018-10-12T06:37:09.992Z,11.93
2018-10-12T06:39:39.464Z,11.07
2018-10-12T06:42:08.801Z,12.63
2018-10-12T06:44:38.277Z,12.47
2018-10-12T06:47:07.666Z,12.10
2018-10-12T06:49:36.969Z,13.00
2018-10-12T06:52:06.278Z,13.77
2018-10-12T06:54:35.961Z,13.57
2018-10-12T06:57:05.496Z,12.57
2018-10-12T06:59:34.843Z,13.07
2018-10-12T07:02:04.244Z,12.90
2018-10-12T07:04:34.192Z,11.77
2018-10-12T07:07:03.681Z,13.77
2018-10-12T07:09:33.110Z,14.70
2018-10-12T07:12:02.606Z,15.13
2018-10-12T07:14:31.909Z,14.90
2018-10-12T07:17:01.490Z,15.00
2018-10-12T07:19:30.800Z,14.80
2018-10-12T07:22:00.104Z,14.60
2018-10-12T07:24:29.424Z,14.77
2018-10-12T07:26:58.819Z,13.80
2018-10-12T07:29:28.135Z,13.30
2018-10-12T07:31:57.469Z,14.50
2018-10-12T07:34:26.769Z,14.73
2018-10-12T07:36:56.181Z,15.10
2018-10-12T07:39:25.632Z,13.77
2018-10-12T07:41:54.932Z,13.87
2018-10-12T07:44:24.397Z,16.30
2018-10-12T07:46:53.750Z,14.33
2018-10-12T07:49:23.064Z,15.73
2018-10-12T07:51:52.445Z,15.43
2018-10-12T07:54:21.770Z,16.53
2018-10-12T07:56:51.085Z,15.63
2018-10-12T07:59:26.237Z,15.00
2018-10-12T08:01:55.653Z,15.90
2018-10-12T08:04:24.982Z,15.43
2018-10-12T08:06:54.391Z,15.50
2018-10-12T08:09:23.803Z,16.00
2018-10-12T08:11:53.177Z,14.70
2018-10-12T08:14:22.538Z,14.37
2018-10-12T08:16:51.942Z,15.03
2018-10-12T08:19:21.327Z,15.33
2018-10-12T08:21:50.716Z,15.00
2018-10-12T08:24:20.129Z,14.97
2018-10-12T08:26:49.559Z,14.93
2018-10-12T08:29:18.974Z,14.60
2018-10-12T08:31:48.329Z,15.07
2018-10-12T08:34:17.661Z,15.23
2018-10-12T08:36:47.021Z,15.73
2018-10-12T08:39:16.345Z,14.87
2018-10-12T08:41:45.700Z,16.30
2018-10-12T08:44:15.334Z,15.50
2018-10-12T08:46:44.678Z,16.13
2018-10-12T08:49:14.277Z,15.53
2018-10-12T08:51:44.018Z,15.43
2018-10-12T08:54:13.759Z,15.70
2018-10-12T08:56:43.391Z,15.70
2018-10-12T08:59:13.190Z,15.17
2018-10-12T09:01:42.874Z,14.37
2018-10-12T09:04:12.543Z,15.73
2018-10-12T09:06:42.277Z,15.27
2018-10-12T09:09:12.190Z,15.07
2018-10-12T09:11:42.271Z,15.83
2018-10-12T09:14:11.962Z,15.70
2018-10-12T09:16:41.658Z,16.43
2018-10-12T09:19:11.360Z,16.83
2018-10-12T09:21:41.103Z,18.13
2018-10-12T09:24:10.706Z,16.47
2018-10-12T09:26:40.553Z,18.57
2018-10-12T09:29:10.235Z,16.93
2018-10-12T09:31:39.914Z,17.53
2018-10-12T09:34:10.531Z,17.60
2018-10-12T09:36:40.344Z,16.73
2018-10-12T09:39:09.958Z,16.67
2018-10-12T09:41:39.692Z,16.13
2018-10-12T09:44:09.687Z,16.30
2018-10-12T09:46:39.353Z,16.30
2018-10-12T09:49:09.787Z,16.87
2018-10-12T09:51:39.500Z,16.40
2018-10-12T09:54:10.412Z,15.47
2018-10-12T09:56:40.085Z,16.57
2018-10-12T09:59:09.726Z,17.43
2018-10-12T10:01:44.791Z,15.70
2018-10-12T10:04:18.271Z,16.33
2018-10-12T10:06:47.960Z,16.53
2018-10-12T10:09:17.662Z,15.93
2018-10-12T10:11:47.311Z,16.97
2018-10-12T10:14:16.942Z,16.10
2018-10-12T10:16:46.646Z,17.30
2018-10-12T10:19:16.652Z,15.38
2018-10-12T10:21:46.576Z,14.93
2018-10-12T10:24:16.177Z,11.85
2018-10-12T10:26:45.835Z,11.70
2018-10-12T10:29:15.529Z,9.95
2018-10-12T10:31:45.212Z,9.75
2018-10-12T10:34:14.947Z,11.07
2018-10-12T10:36:44.686Z,12.00
2018-10-12T10:39:14.395Z,9.77
2018-10-12T10:41:44.066Z,10.03
2018-10-12T10:44:14.057Z,9.45
2018-10-12T10:46:43.720Z,9.63
2018-10-12T10:49:13.596Z,10.38
2018-10-12T10:51:43.308Z,10.20
2018-10-12T10:54:12.892Z,9.08
2018-10-12T10:56:42.649Z,9.35
2018-10-12T10:59:12.257Z,10.43
2018-10-12T11:01:41.910Z,10.10
2018-10-12T11:04:11.485Z,9.98
2018-10-12T11:06:41.188Z,9.53
2018-10-12T11:09:10.812Z,9.55
2018-10-12T11:11:40.470Z,9.95
2018-10-12T11:14:10.154Z,9.40
2018-10-12T11:16:39.869Z,9.78
2018-10-12T11:19:09.572Z,10.00
2018-10-12T11:21:39.277Z,8.68
2018-10-12T11:24:09.184Z,8.25
2018-10-12T11:26:39.271Z,8.45
2018-10-12T11:29:09.136Z,8.05
2018-10-12T11:31:38.807Z,8.08
2018-10-12T11:34:15.503Z,8.18
2018-10-12T11:36:45.198Z,7.80
2018-10-12T11:39:16.565Z,6.50
2018-10-12T11:41:56.175Z,7.95
2018-10-12T11:44:25.986Z,8.03
2018-10-12T11:46:55.631Z,8.80
2018-10-12T11:49:30.291Z,6.58
2018-10-12T11:51:59.956Z,8.18
2018-10-12T11:54:30.539Z,7.28
2018-10-12T11:57:00.244Z,6.87
2018-10-12T11:59:29.933Z,6.85
2018-10-12T12:02:00.188Z,7.05
2018-10-12T12:04:29.978Z,6.40
2018-10-12T12:06:59.728Z,6.95
2018-10-12T12:09:29.671Z,6.05
2018-10-12T12:11:59.339Z,6.67
2018-10-12T12:14:29.445Z,6.28
2018-10-12T12:17:00.956Z,6.78
2018-10-12T12:19:30.904Z,6.35
2018-10-12T12:22:00.643Z,6.95
2018-10-12T12:24:30.336Z,6.17
2018-10-12T12:27:00.330Z,5.60
2018-10-12T12:29:30.580Z,6.50
2018-10-12T12:32:00.489Z,6.78
2018-10-12T12:34:30.138Z,7.08
2018-10-12T12:36:59.778Z,6.90
2018-10-12T12:39:29.767Z,7.20
2018-10-12T12:41:59.502Z,7.28
2018-10-12T12:44:29.451Z,7.25
2018-10-12T12:46:59.117Z,6.72
2018-10-12T12:49:28.994Z,7.12
2018-10-12T12:51:58.438Z,7.78
2018-10-12T12:54:28.204Z,7.92
2018-10-12T12:56:58.035Z,8.00
2018-10-12T12:59:27.730Z,8.28
2018-10-12T13:01:57.598Z,8.38
2018-10-12T13:04:27.245Z,7.70
2018-10-12T13:06:59.784Z,8.55
2018-10-12T13:09:35.283Z,7.80
2018-10-12T13:12:07.384Z,7.97
2018-10-12T13:14:37.231Z,7.80
2018-10-12T13:17:06.907Z,7.45
2018-10-12T13:19:36.732Z,7.28
2018-10-12T13:22:19.894Z,8.25
2018-10-12T13:24:50.207Z,7.72
2018-10-12T13:27:19.906Z,7.40
2018-10-12T13:29:49.594Z,7.12
2018-10-12T13:32:21.099Z,6.75
2018-10-12T13:34:51.027Z,6.92
2018-10-12T13:37:20.855Z,7.55
2018-10-12T13:39:54.673Z,6.85
2018-10-12T13:42:24.343Z,6.92
2018-10-12T13:44:54.093Z,6.70
2018-10-12T13:50:35.641Z,6.85
2018-10-12T13:53:05.290Z,6.10
2018-10-12T13:55:36.848Z,6.40
2018-10-12T13:58:06.774Z,5.47
2018-10-12T14:00:36.594Z,5.30
2018-10-12T14:03:06.243Z,5.17
2018-10-12T14:05:36.066Z,5.10
2018-10-12T14:08:05.749Z,9.85
2018-10-12T14:10:35.436Z,10.45
2018-10-12T14:13:05.065Z,9.85
2018-10-12T14:15:34.807Z,9.70
2018-10-12T14:18:04.457Z,7.10
2018-10-12T14:20:34.042Z,6.20
2018-10-12T14:23:04.071Z,5.95
2018-10-12T14:25:33.861Z,4.92
2018-10-12T14:28:03.636Z,4.40
2018-10-12T14:30:33.374Z,4.60
2018-10-12T14:33:03.074Z,4.83
2018-10-12T14:35:33.701Z,4.53
2018-10-12T14:38:03.698Z,4.65
2018-10-12T14:40:33.296Z,4.58
2018-10-12T14:43:04.165Z,4.97
2018-10-12T14:45:34.011Z,4.10
2018-10-12T14:48:08.287Z,4.62
2018-10-12T14:50:38.046Z,4.83
2018-10-12T14:53:08.052Z,4.37
2018-10-12T14:55:38.014Z,4.15
2018-10-12T14:58:07.886Z,4.80
2018-10-12T15:00:37.567Z,4.50
2018-10-12T15:03:07.675Z,4.87
2018-10-12T15:05:37.365Z,4.33
2018-10-12T15:08:17.174Z,3.90
2018-10-12T15:10:46.985Z,4.08
2018-10-12T15:13:16.742Z,4.08
2018-10-12T15:15:52.954Z,3.90
2018-10-12T15:18:23.378Z,3.35
2018-10-12T15:21:09.950Z,3.77
2018-10-12T15:23:39.647Z,3.77
2018-10-12T15:26:09.392Z,3.47
2018-10-12T15:28:39.026Z,3.10
2018-10-12T15:31:09.098Z,3.70
2018-10-12T15:33:43.290Z,3.70
2018-10-12T15:36:13.037Z,3.02
2018-10-12T15:38:42.702Z,3.30
2018-10-12T15:41:12.429Z,3.40
2018-10-12T15:43:42.227Z,3.17
2018-10-12T15:46:11.946Z,3.70
2018-10-12T15:48:41.714Z,3.20
2018-10-12T15:51:11.382Z,3.35
2018-10-12T15:53:41.047Z,3.50
2018-10-12T15:56:27.470Z,3.65
2018-10-12T15:58:57.107Z,4.00
2018-10-12T16:01:26.738Z,3.67
2018-10-12T16:03:56.781Z,3.75
2018-10-12T16:06:26.948Z,3.77
2018-10-12T16:08:56.687Z,4.15
2018-10-12T16:11:27.762Z,4.10
2018-10-12T16:13:58.049Z,4.03
2018-10-12T16:16:28.430Z,4.33
2018-10-12T16:18:59.960Z,4.28
2018-10-12T16:21:30.365Z,4.72
2018-10-12T16:24:10.034Z,3.83
2018-10-12T16:26:40.931Z,4.50
2018-10-12T16:29:10.906Z,4.77
2018-10-12T16:31:40.934Z,4.30
2018-10-12T16:37:13.690Z,4.93
2018-10-12T16:39:44.854Z,4.53
2018-10-12T16:42:19.835Z,4.67
2018-10-12T16:44:50.575Z,5.23
2018-10-12T16:47:20.247Z,4.30
2018-10-12T16:49:50.636Z,4.73
2018-10-12T16:52:26.014Z,5.07
2018-10-12T16:54:56.343Z,5.47
2018-10-12T16:57:30.890Z,5.23
2018-10-12T17:00:00.926Z,5.13
2018-10-12T17:02:30.550Z,5.40
2018-10-12T17:05:00.407Z,4.73
2018-10-12T17:07:30.030Z,4.97
2018-10-12T17:09:59.710Z,4.77
2018-10-12T17:12:39.900Z,5.73
2018-10-12T17:15:21.351Z,5.77
2018-10-12T17:17:51.146Z,5.83
2018-10-12T17:20:20.867Z,5.33
2018-10-12T17:22:50.717Z,6.10
2018-10-12T17:25:22.654Z,5.97
2018-10-12T17:27:52.423Z,6.10
2018-10-12T17:30:35.772Z,5.93
2018-10-12T17:33:05.374Z,5.70
2018-10-12T17:35:35.019Z,5.20
2018-10-12T17:38:04.715Z,5.20
2018-10-12T17:40:34.380Z,5.50
2018-10-12T17:43:04.089Z,5.37
2018-10-12T17:45:33.698Z,5.80
2018-10-12T17:48:04.710Z,5.43
2018-10-12T17:50:34.391Z,6.00
2018-10-12T17:53:04.031Z,6.17
2018-10-12T17:55:33.727Z,6.43
2018-10-12T17:58:03.325Z,5.83
2018-10-12T18:00:33.155Z,6.13
2018-10-12T18:03:02.686Z,7.03
2018-10-12T18:05:32.392Z,5.93
2018-10-12T18:08:02.194Z,6.13
2018-10-12T18:10:31.855Z,5.70
2018-10-12T18:13:01.749Z,4.90
2018-10-12T18:15:31.470Z,5.10
2018-10-12T18:18:01.301Z,5.27
2018-10-12T18:20:30.634Z,5.97
2018-10-12T18:23:00.009Z,5.13
2018-10-12T18:25:29.422Z,5.37
2018-10-12T18:27:58.873Z,5.17
2018-10-12T18:30:28.239Z,5.00
2018-10-12T18:32:57.609Z,4.90
2018-10-12T18:35:27.517Z,4.90
2018-10-12T18:37:56.874Z,5.27
2018-10-12T18:40:29.843Z,5.10
2018-10-12T18:42:59.323Z,4.50
2018-10-12T18:45:28.769Z,5.27
2018-10-12T18:47:58.129Z,5.80
2018-10-12T18:50:27.554Z,6.07
2018-10-12T18:52:56.860Z,6.00
2018-10-12T18:55:27.165Z,6.30
2018-10-12T18:57:56.629Z,6.60
2018-10-12T19:00:25.966Z,7.00
2018-10-12T19:02:55.533Z,7.53
2018-10-12T19:05:24.986Z,6.17
2018-10-12T19:07:59.978Z,7.23
2018-10-12T19:10:29.325Z,7.67
2018-10-12T19:12:58.677Z,6.50
2018-10-12T19:15:28.193Z,7.00
2018-10-12T19:17:57.521Z,7.03
2018-10-12T19:20:26.891Z,6.40
2018-10-12T19:22:56.326Z,6.90
2018-10-12T19:25:25.760Z,7.40
2018-10-12T19:27:55.138Z,6.97
2018-10-12T19:30:24.902Z,6.57
2018-10-12T19:32:54.223Z,6.83
2018-10-12T19:35:34.953Z,5.90
2018-10-12T19:38:04.327Z,6.17
2018-10-12T19:40:33.646Z,5.80
2018-10-12T19:43:03.177Z,5.53
2018-10-12T19:45:32.521Z,5.47
2018-10-12T19:48:01.994Z,5.37
2018-10-12T19:50:31.348Z,6.93
2018-10-12T19:53:00.846Z,5.80
2018-10-12T19:55:30.320Z,5.53
2018-10-12T19:57:59.939Z,5.27
2018-10-12T20:00:29.612Z,5.30
2018-10-12T20:02:59.278Z,5.27
2018-10-12T20:05:29.422Z,5.33
2018-10-12T20:08:01.112Z,5.90
2018-10-12T20:10:31.026Z,4.80
2018-10-12T20:13:00.764Z,5.70
2018-10-12T20:15:30.355Z,4.70
2018-10-12T20:18:00.726Z,4.57
2018-10-12T20:20:30.463Z,4.87
2018-10-12T20:23:00.203Z,4.60
2018-10-12T20:25:29.931Z,4.50
2018-10-12T20:27:59.631Z,5.80
2018-10-12T20:30:29.287Z,4.70
2018-10-12T20:32:58.944Z,4.53
2018-10-12T20:35:28.638Z,5.00
2018-10-12T20:37:58.441Z,5.00
2018-10-12T20:40:28.956Z,4.27
2018-10-12T20:43:02.554Z,4.77
2018-10-12T20:45:32.325Z,4.30
2018-10-12T20:48:01.931Z,4.30
2018-10-12T20:50:31.584Z,4.93
2018-10-12T20:53:01.361Z,4.63
2018-10-12T20:55:31.012Z,4.67
2018-10-12T20:58:00.790Z,4.20
2018-10-12T21:00:30.544Z,4.87
2018-10-12T21:03:04.618Z,4.60
2018-10-12T21:05:34.213Z,4.73
2018-10-12T21:08:05.519Z,5.10
2018-10-12T21:10:35.503Z,4.87
2018-10-12T21:13:05.380Z,5.43
2018-10-12T21:15:35.079Z,4.97
2018-10-12T21:18:04.992Z,5.40
2018-10-12T21:20:46.392Z,4.60
2018-10-12T21:23:41.035Z,4.30
2018-10-12T21:26:10.734Z,4.57
2018-10-12T21:28:44.604Z,4.47
2018-10-12T21:31:16.711Z,5.27
2018-10-12T21:33:48.416Z,4.50
2018-10-12T21:36:18.327Z,4.20
2018-10-12T21:38:48.004Z,4.53
2018-10-12T21:41:17.667Z,4.20
2018-10-12T21:43:47.406Z,4.40
2018-10-12T21:46:17.079Z,4.27
2018-10-12T21:48:47.061Z,4.40
2018-10-12T21:51:16.673Z,4.63
2018-10-12T21:53:46.498Z,4.60
2018-10-12T21:56:26.728Z,4.70
2018-10-12T21:58:56.503Z,4.33
2018-10-12T22:01:26.334Z,4.50
2018-10-12T22:03:56.077Z,4.70
2018-10-12T22:06:25.779Z,4.17
2018-10-12T22:09:03.739Z,4.40
2018-10-12T22:11:57.737Z,4.70
2018-10-12T22:14:27.378Z,4.00
2018-10-12T22:17:00.494Z,4.17
2018-10-12T22:19:55.119Z,4.43
2018-10-12T22:22:26.136Z,3.97
2018-10-12T22:25:00.776Z,4.53
2018-10-12T22:27:32.128Z,4.60
2018-10-12T22:30:09.067Z,4.17
2018-10-12T22:32:38.659Z,4.47
2018-10-12T22:35:08.998Z,4.70
2018-10-12T22:37:39.110Z,4.80
2018-10-12T22:40:08.799Z,4.30
2018-10-12T22:42:49.647Z,4.83
2018-10-12T22:45:19.182Z,4.57
2018-10-12T22:47:48.907Z,5.73
2018-10-12T22:50:18.663Z,4.63
2018-10-12T22:52:55.483Z,4.33
2018-10-12T22:55:27.098Z,4.43
2018-10-12T22:58:01.783Z,4.77
2018-10-12T23:00:36.637Z,4.33
2018-10-12T23:03:09.571Z,4.47
2018-10-12T23:05:40.601Z,4.90
2018-10-12T23:08:17.237Z,4.63
2018-10-12T23:10:52.409Z,5.40
2018-10-12T23:13:24.264Z,4.53
2018-10-12T23:15:56.394Z,4.30
2018-10-12T23:18:27.841Z,4.27
2018-10-12T23:20:57.288Z,4.73
2018-10-12T23:23:26.886Z,4.67
2018-10-12T23:25:56.712Z,4.63
2018-10-12T23:28:26.061Z,4.27
2018-10-12T23:30:57.062Z,4.40
2018-10-12T23:33:47.245Z,4.20
2018-10-12T23:36:18.568Z,4.50
2018-10-12T23:38:51.110Z,4.73
2018-10-12T23:41:27.157Z,4.27
2018-10-12T23:43:56.639Z,4.30
2018-10-12T23:46:29.997Z,4.53
2018-10-12T23:48:59.798Z,4.57
2018-10-12T23:51:35.048Z,3.77
2018-10-12T23:54:05.685Z,4.30
2018-10-12T23:56:35.352Z,4.57
2018-10-12T23:59:05.763Z,3.90
